Time;durP1;ratioP1;P1;durP2;ratioP2;P2;SDS_P1;SDS_P2;PMS_P1;PMS_P2;Temp;Humidity;BMP_temperature;BMP_pressure;BME280_temperature;BME280_humidity;BME280_pressure;Samples;Min_cycle;Max_cycle;Signal;HPM_P1;HPM_P2
2021/06/22 00:00:05;;;;;;;2.45;0.20;;;20.50;93.90;20.50;98938.00;;;;339963;28;94294;-87
2021/06/22 00:00:26;;;;;;;1.90;0.20;;;20.40;93.80;20.50;98945.00;;;;342281;28;82535;-90
2021/06/22 00:00:38;;;;;;;0.73;0.20;;;20.40;93.70;20.00;98937.00;;;;341485;28;94620;-89
2021/06/22 00:00:50;;;;;;;1.33;0.20;;;20.40;93.10;20.00;98935.00;;;;342041;28;84900;-89
2021/06/22 00:01:04;;;;;;;2.47;0.28;;;20.40;93.10;20.00;98940.00;;;;340378;28;96515;-89
2021/06/22 00:01:18;;;;;;;2.47;0.30;;;20.30;93.30;20.10;98939.00;;;;343523;28;83939;-91
2021/06/22 00:01:30;;;;;;;2.08;0.32;;;20.30;93.40;20.10;98936.00;;;;343004;28;93955;-87
2021/06/22 00:01:42;;;;;;;2.17;0.30;;;20.30;93.50;20.20;98938.00;;;;345137;28;83705;-89
2021/06/22 00:01:54;;;;;;;2.45;0.40;;;20.30;93.50;20.00;98933.00;;;;341642;28;95177;-89
2021/06/22 00:02:06;;;;;;;1.48;0.30;;;20.20;93.50;20.00;98928.00;;;;343298;28;84041;-86
2021/06/22 00:02:17;;;;;;;1.30;0.30;;;20.20;93.50;20.00;98927.00;;;;341417;28;96676;-89
2021/06/22 00:02:31;;;;;;;1.35;0.25;;;20.20;93.60;20.00;98929.00;;;;344825;28;82709;-93
2021/06/22 00:02:44;;;;;;;1.70;0.30;;;20.20;93.70;20.10;98932.00;;;;342746;28;95421;-89
2021/06/22 00:02:56;;;;;;;1.20;0.30;;;20.20;93.80;20.10;98930.00;;;;344954;28;82388;-90
2021/06/22 00:03:07;;;;;;;1.23;0.20;;;20.20;93.80;19.90;98936.00;;;;344070;28;95774;-91
2021/06/22 00:03:19;;;;;;;2.08;0.30;;;20.20;93.70;19.90;98933.00;;;;343594;28;83423;-86
2021/06/22 00:03:31;;;;;;;2.35;0.30;;;20.20;93.60;19.90;98936.00;;;;341780;28;93117;-89
2021/06/22 00:03:43;;;;;;;2.10;0.40;;;20.10;93.60;19.90;98937.00;;;;343514;28;83628;-88
2021/06/22 00:03:55;;;;;;;1.65;0.35;;;20.10;93.70;19.90;98932.00;;;;341533;28;96652;-91
2021/06/22 00:04:07;;;;;;;1.00;0.30;;;20.10;93.80;19.80;98936.00;;;;343576;28;82349;-85
2021/06/22 00:04:19;;;;;;;1.40;0.50;;;20.10;93.90;19.90;98924.00;;;;343016;28;93992;-92
2021/06/22 00:04:31;;;;;;;1.23;0.40;;;20.10;93.90;20.00;98933.00;;;;342348;28;82348;-88
2021/06/22 00:04:42;;;;;;;1.23;0.40;;;20.00;94.00;20.10;98936.00;;;;344530;28;92970;-90
2021/06/22 00:04:54;;;;;;;0.68;0.20;;;20.00;94.30;20.00;98931.00;;;;343506;28;82252;-90
2021/06/22 00:05:07;;;;;;;0.85;0.30;;;20.00;94.20;20.10;98937.00;;;;342813;28;95652;-90
2021/06/22 00:05:20;;;;;;;0.93;0.30;;;20.10;94.30;19.80;98935.00;;;;343618;28;83918;-91
2021/06/22 00:05:35;;;;;;;0.90;0.30;;;20.10;94.20;20.00;98931.00;;;;341667;28;94943;-86
2021/06/22 00:05:47;;;;;;;0.90;0.20;;;20.00;94.10;20.00;98936.00;;;;343671;28;82444;-92
2021/06/22 00:05:59;;;;;;;0.75;0.20;;;20.00;94.20;20.00;98931.00;;;;344062;28;94002;-90
2021/06/22 00:06:10;;;;;;;0.70;0.30;;;20.00;94.20;20.10;98927.00;;;;344881;28;83791;-90
2021/06/22 00:06:22;;;;;;;1.05;0.30;;;20.00;94.40;20.00;98937.00;;;;344468;28;93842;-89
2021/06/22 00:06:34;;;;;;;1.17;0.30;;;20.10;94.20;20.00;98938.00;;;;344788;28;83495;-88
2021/06/22 00:06:46;;;;;;;1.10;0.20;;;20.10;94.20;20.00;98939.00;;;;343106;28;93063;-90
2021/06/22 00:06:58;;;;;;;0.80;0.20;;;20.10;94.30;20.10;98934.00;;;;346351;28;82391;-87
2021/06/22 00:07:14;;;;;;;2.70;0.40;;;20.10;94.30;20.00;98936.00;;;;339790;28;97102;-92
2021/06/22 00:07:25;;;;;;;2.63;0.35;;;20.10;94.30;20.00;98935.00;;;;343575;28;82432;-93
2021/06/22 00:07:37;;;;;;;1.88;0.32;;;20.10;94.20;20.10;98944.00;;;;340184;28;96524;-92
2021/06/22 00:07:52;;;;;;;1.48;0.35;;;20.10;94.20;19.90;98941.00;;;;343693;28;82472;-92
2021/06/22 00:08:04;;;;;;;1.85;0.30;;;20.10;94.20;20.10;98943.00;;;;338673;28;96345;-91
2021/06/22 00:08:16;;;;;;;3.30;0.40;;;20.10;94.50;20.10;98935.00;;;;344868;28;84463;-92
2021/06/22 00:08:47;;;;;;;2.60;0.40;;;20.10;94.20;20.10;98942.00;;;;340382;28;94020;-89
2021/06/22 00:09:00;;;;;;;2.50;0.30;;;20.10;94.40;20.20;98939.00;;;;344457;28;82539;-88
2021/06/22 00:09:12;;;;;;;1.10;0.20;;;20.10;94.30;20.20;98938.00;;;;342719;28;95725;-92
2021/06/22 00:09:23;;;;;;;0.60;0.20;;;20.10;94.30;20.20;98935.00;;;;343571;28;83662;-91
2021/06/22 00:09:35;;;;;;;0.80;0.30;;;20.10;94.20;20.30;98943.00;;;;341676;28;96314;-89
2021/06/22 00:09:48;;;;;;;0.82;0.30;;;20.10;94.30;20.20;98942.00;;;;343455;28;84335;-90
2021/06/22 00:10:00;;;;;;;0.95;0.32;;;20.20;94.50;20.20;98940.00;;;;341401;28;96893;-91
2021/06/22 00:10:12;;;;;;;0.90;0.40;;;20.20;94.50;20.10;98942.00;;;;342403;28;83494;-88
2021/06/22 00:10:27;;;;;;;1.17;0.60;;;20.20;94.30;20.20;98943.00;;;;341780;28;93078;-89
2021/06/22 00:10:39;;;;;;;1.02;0.40;;;20.20;94.30;20.20;98941.00;;;;340830;28;83605;-93
2021/06/22 00:10:51;;;;;;;0.70;0.28;;;20.20;94.40;20.10;98942.00;;;;339825;28;98014;-89
2021/06/22 00:11:04;;;;;;;0.52;0.20;;;20.20;94.40;20.00;98937.00;;;;342364;28;83785;-89
2021/06/22 00:11:16;;;;;;;1.58;0.20;;;20.20;94.30;20.20;98947.00;;;;342746;28;96659;-90
2021/06/22 00:11:28;;;;;;;2.13;0.28;;;20.20;94.30;20.20;98944.00;;;;344821;28;83904;-90
2021/06/22 00:11:40;;;;;;;1.10;0.30;;;20.20;94.30;20.30;98951.00;;;;342891;28;96818;-88
2021/06/22 00:11:52;;;;;;;0.68;0.20;;;20.20;94.30;20.30;98953.00;;;;342339;28;84490;-91
2021/06/22 00:12:04;;;;;;;1.48;0.20;;;20.20;94.30;20.30;98952.00;;;;344177;28;93412;-92
2021/06/22 00:12:16;;;;;;;1.80;0.30;;;20.20;94.30;20.30;98949.00;;;;342381;28;84309;-91
2021/06/22 00:12:28;;;;;;;1.40;0.30;;;20.20;94.30;20.20;98950.00;;;;341564;28;96247;-89
2021/06/22 00:12:40;;;;;;;0.52;0.20;;;20.20;94.40;20.20;98948.00;;;;342116;28;82340;-94
2021/06/22 00:12:53;;;;;;;0.70;0.20;;;20.20;94.30;20.30;98949.00;;;;341515;28;94773;-91
2021/06/22 00:13:05;;;;;;;0.77;0.20;;;20.20;94.30;20.20;98947.00;;;;344464;28;83596;-92
2021/06/22 00:13:17;;;;;;;1.20;0.30;;;20.30;94.30;20.30;98951.00;;;;341749;28;93454;-89
2021/06/22 00:13:29;;;;;;;1.20;0.30;;;20.20;94.30;20.40;98955.00;;;;342397;28;82445;-90
2021/06/22 00:13:41;;;;;;;0.90;0.25;;;20.20;94.20;20.30;98947.00;;;;342934;28;95769;-90
2021/06/22 00:13:52;;;;;;;3.80;0.70;;;20.30;94.50;20.30;98949.00;;;;341721;28;83896;-88
2021/06/22 00:14:04;;;;;;;4.13;0.70;;;20.30;94.20;20.30;98946.00;;;;340881;28;96090;-93
2021/06/22 00:14:16;;;;;;;2.58;0.32;;;20.30;94.30;20.20;98946.00;;;;342158;28;84227;-91
2021/06/22 00:14:28;;;;;;;1.77;0.20;;;20.30;94.30;20.20;98955.00;;;;339404;28;96807;-93
2021/06/22 00:14:40;;;;;;;2.75;0.40;;;20.30;94.30;20.20;98948.00;;;;342067;28;83981;-92
2021/06/22 00:14:52;;;;;;;2.28;0.47;;;20.30;94.40;20.20;98943.00;;;;341543;28;93902;-94
2021/06/22 00:15:05;;;;;;;2.15;0.40;;;20.30;94.50;20.20;98949.00;;;;340980;28;82303;-87
2021/06/22 00:15:19;;;;;;;1.50;0.30;;;20.30;94.60;20.20;98940.00;;;;344249;28;93744;-89
2021/06/22 00:15:32;;;;;;;1.27;0.28;;;20.30;94.50;20.30;98956.00;;;;343892;28;82333;-91
2021/06/22 00:15:45;;;;;;;1.50;0.20;;;20.30;94.50;20.30;98951.00;;;;340141;28;96474;-91
2021/06/22 00:15:57;;;;;;;1.48;0.20;;;20.30;94.50;20.30;98951.00;;;;344863;28;84433;-91
2021/06/22 00:16:09;;;;;;;0.80;0.30;;;20.30;94.50;20.30;98951.00;;;;342793;28;93282;-92
2021/06/22 00:16:21;;;;;;;0.70;0.30;;;20.30;94.50;20.30;98953.00;;;;343427;28;83460;-90
2021/06/22 00:16:34;;;;;;;0.68;0.30;;;20.30;94.50;20.30;98957.00;;;;341118;28;96812;-93
2021/06/22 00:16:47;;;;;;;0.55;0.20;;;20.30;94.50;20.30;98955.00;;;;340871;28;82450;-92
2021/06/22 00:16:59;;;;;;;0.60;0.20;;;20.30;94.40;20.20;98947.00;;;;342864;28;97378;-93
2021/06/22 00:17:11;;;;;;;0.55;0.22;;;20.30;94.40;20.20;98951.00;;;;343977;28;82985;-91
2021/06/22 00:17:23;;;;;;;1.33;0.30;;;20.30;94.40;20.20;98952.00;;;;341154;28;93038;-94
2021/06/22 00:17:35;;;;;;;1.50;0.30;;;20.30;94.50;20.00;98951.00;;;;340652;28;84142;-95
2021/06/22 00:17:47;;;;;;;1.08;0.20;;;20.30;94.50;20.00;98951.00;;;;340123;28;93541;-94
2021/06/22 00:17:59;;;;;;;0.40;0.20;;;20.30;94.50;20.00;98953.00;;;;341824;28;82490;-89
2021/06/22 00:18:11;;;;;;;1.50;0.20;;;20.30;94.60;20.00;98953.00;;;;339255;28;93535;-89
2021/06/22 00:18:23;;;;;;;1.60;0.20;;;20.30;94.70;20.20;98952.00;;;;342318;28;82452;-89
2021/06/22 00:18:35;;;;;;;0.93;0.28;;;20.30;94.70;20.30;98954.00;;;;341533;28;93397;-92
2021/06/22 00:18:46;;;;;;;0.60;0.20;;;20.30;94.80;20.20;98958.00;;;;342493;28;82442;-89
2021/06/22 00:18:58;;;;;;;1.20;0.35;;;20.40;94.80;20.10;98958.00;;;;339188;28;94005;-87
2021/06/22 00:19:12;;;;;;;1.52;0.40;;;20.30;94.70;19.90;98954.00;;;;343234;28;83768;-89
2021/06/22 00:19:24;;;;;;;2.20;0.36;;;20.30;94.60;20.00;98954.00;;;;340083;28;93617;-88
2021/06/22 00:19:36;;;;;;;2.53;0.30;;;20.30;94.60;20.00;98957.00;;;;340802;28;84230;-87
2021/06/22 00:19:48;;;;;;;1.70;0.30;;;20.30;94.60;19.90;98963.00;;;;342635;28;96398;-91
2021/06/22 00:20:00;;;;;;;1.08;0.25;;;20.30;94.60;20.00;98961.00;;;;340422;28;82516;-91
2021/06/22 00:20:12;;;;;;;1.05;0.30;;;20.30;94.60;20.00;98956.00;;;;340101;28;93360;-91
2021/06/22 00:20:25;;;;;;;0.90;0.30;;;20.30;94.70;20.20;98965.00;;;;342142;28;82411;-93
2021/06/22 00:20:37;;;;;;;1.88;0.35;;;20.30;94.70;19.90;98961.00;;;;339948;28;96634;-93
2021/06/22 00:20:48;;;;;;;2.00;0.30;;;20.30;94.60;19.90;98956.00;;;;343566;28;83834;-94
2021/06/22 00:21:00;;;;;;;3.08;0.35;;;20.20;94.60;19.90;98960.00;;;;340027;28;94092;-93
2021/06/22 00:21:12;;;;;;;2.47;0.30;;;20.30;94.60;19.90;98957.00;;;;340733;28;82502;-93
2021/06/22 00:21:24;;;;;;;2.20;0.30;;;20.20;94.60;20.10;98966.00;;;;341259;28;96601;-94
2021/06/22 00:21:36;;;;;;;2.00;0.38;;;20.20;94.60;20.00;98961.00;;;;340757;28;83827;-96
2021/06/22 00:21:48;;;;;;;1.00;0.30;;;20.30;94.50;19.90;98967.00;;;;343059;28;93122;-91
2021/06/22 00:22:00;;;;;;;1.08;0.38;;;20.30;94.50;20.10;98955.00;;;;342108;28;84536;-94
2021/06/22 00:22:12;;;;;;;1.35;0.30;;;20.20;94.50;20.00;98968.00;;;;342605;28;96044;-87
2021/06/22 00:22:24;;;;;;;1.90;0.40;;;20.30;94.60;20.20;98958.00;;;;340588;28;83565;-95
2021/06/22 00:22:38;;;;;;;1.30;0.30;;;20.30;94.60;20.30;98961.00;;;;341603;28;92188;-91
2021/06/22 00:22:53;;;;;;;0.73;0.30;;;20.30;94.70;20.30;98965.00;;;;343850;28;84167;-92
2021/06/22 00:23:05;;;;;;;1.45;0.30;;;20.20;94.60;20.30;98962.00;;;;340316;28;97997;-95
2021/06/22 00:23:19;;;;;;;2.85;0.28;;;20.30;94.70;20.30;98960.00;;;;339387;28;82263;-95
2021/06/22 00:23:31;;;;;;;2.60;0.35;;;20.30;94.80;20.20;98959.00;;;;338602;28;96441;-95
2021/06/22 00:23:43;;;;;;;2.72;0.40;;;20.30;94.80;20.00;98958.00;;;;344487;28;83703;-92
2021/06/22 00:23:55;;;;;;;2.42;0.30;;;20.20;94.80;20.10;98959.00;;;;338583;28;93441;-96
2021/06/22 00:24:07;;;;;;;2.72;0.40;;;20.30;94.80;20.10;98959.00;;;;341953;28;84125;-96
2021/06/22 00:24:19;;;;;;;1.48;0.50;;;20.30;94.90;20.10;98954.00;;;;341178;28;95002;-96
2021/06/22 00:24:31;;;;;;;0.98;0.30;;;20.30;95.20;20.00;98958.00;;;;339173;28;82448;-95
2021/06/22 00:24:43;;;;;;;1.10;0.30;;;20.30;94.80;20.00;98962.00;;;;339835;28;97565;-96
2021/06/22 00:24:54;;;;;;;1.60;0.20;;;20.30;94.80;20.00;98951.00;;;;340810;28;82260;-96
2021/06/22 00:25:08;;;;;;;1.50;0.20;;;20.30;94.90;20.00;98962.00;;;;338292;28;94367;-93
2021/06/22 00:25:20;;;;;;;0.98;0.30;;;20.30;94.90;20.00;98952.00;;;;343463;28;82432;-92
2021/06/22 00:25:35;;;;;;;1.08;0.30;;;20.20;95.00;19.90;98960.00;;;;340105;28;93083;-93
2021/06/22 00:25:47;;;;;;;1.20;0.30;;;20.30;95.00;20.00;98950.00;;;;342092;28;82356;-93
2021/06/22 00:25:59;;;;;;;1.60;0.30;;;20.20;95.00;19.90;98962.00;;;;341487;28;96448;-94
2021/06/22 00:26:11;;;;;;;1.60;0.50;;;20.20;95.00;20.10;98952.00;;;;342383;28;82532;-93
2021/06/22 00:26:23;;;;;;;1.40;0.43;;;20.20;95.10;20.20;98954.00;;;;341672;28;93833;-94
2021/06/22 00:26:35;;;;;;;8.70;0.57;;;20.20;95.20;20.00;98951.00;;;;339503;28;82476;-93
2021/06/22 00:26:46;;;;;;;8.52;0.50;;;20.20;95.30;19.80;98948.00;;;;341686;28;92166;-93
2021/06/22 00:26:58;;;;;;;3.10;0.35;;;20.20;94.70;19.80;98955.00;;;;342669;28;84021;-89
2021/06/22 00:27:12;;;;;;;1.73;0.30;;;20.20;94.60;19.80;98944.00;;;;341212;28;93945;-90
2021/06/22 00:27:24;;;;;;;2.70;0.30;;;20.20;94.60;19.90;98941.00;;;;343741;28;83650;-90
2021/06/22 00:27:37;;;;;;;3.03;0.30;;;20.20;94.60;20.00;98958.00;;;;342551;28;95034;-92
2021/06/22 00:27:50;;;;;;;1.90;0.20;;;20.20;95.00;20.00;98947.00;;;;341887;28;84379;-91
2021/06/22 00:28:02;;;;;;;1.38;0.20;;;20.20;94.80;20.20;98950.00;;;;341371;28;96580;-90
2021/06/22 00:28:17;;;;;;;0.70;0.20;;;20.20;94.90;20.30;98949.00;;;;340845;28;82357;-90
2021/06/22 00:28:29;;;;;;;1.02;0.20;;;20.20;95.00;20.40;98940.00;;;;340339;28;93156;-87
2021/06/22 00:28:41;;;;;;;1.60;0.20;;;20.20;94.90;20.20;98942.00;;;;340796;28;84617;-90
2021/06/22 00:28:52;;;;;;;1.33;0.30;;;20.20;94.80;20.00;98940.00;;;;342358;28;93689;-92
2021/06/22 00:29:05;;;;;;;1.42;0.30;;;20.20;94.80;20.00;98945.00;;;;341580;28;83824;-94
2021/06/22 00:29:17;;;;;;;1.27;0.30;;;20.20;94.80;19.90;98943.00;;;;340932;28;97591;-94
2021/06/22 00:29:29;;;;;;;1.13;0.30;;;20.20;94.70;20.10;98943.00;;;;341672;28;82466;-94
2021/06/22 00:29:43;;;;;;;0.85;0.20;;;20.20;94.80;20.10;98948.00;;;;342619;28;93786;-95
2021/06/22 00:29:55;;;;;;;0.82;0.22;;;20.20;94.80;20.20;98946.00;;;;342254;28;82327;-95
2021/06/22 00:30:08;;;;;;;1.17;0.22;;;20.20;94.80;20.30;98948.00;;;;341266;28;96926;-96
2021/06/22 00:30:21;;;;;;;1.13;0.30;;;20.20;95.00;20.40;98948.00;;;;340979;28;82332;-95
2021/06/22 00:30:33;;;;;;;1.35;0.30;;;20.20;95.00;20.40;98945.00;;;;338639;28;96746;-93
2021/06/22 00:30:45;;;;;;;1.80;0.30;;;20.30;95.10;20.40;98937.00;;;;343383;28;84220;-94
2021/06/22 00:30:57;;;;;;;1.98;0.32;;;20.30;95.10;20.20;98942.00;;;;342898;28;93276;-86
2021/06/22 00:31:08;;;;;;;2.53;0.50;;;20.30;95.10;20.20;98940.00;;;;343208;28;84099;-89
2021/06/22 00:31:20;;;;;;;1.88;0.40;;;20.30;95.20;20.10;98942.00;;;;338527;28;94015;-94
2021/06/22 00:31:32;;;;;;;1.00;0.30;;;20.30;95.20;20.00;98936.00;;;;344598;28;84312;-92
2021/06/22 00:31:44;;;;;;;1.38;0.20;;;20.30;94.90;20.20;98936.00;;;;342789;28;96593;-91
2021/06/22 00:31:56;;;;;;;1.60;0.20;;;20.30;95.00;20.20;98933.00;;;;340505;28;82389;-96
2021/06/22 00:32:08;;;;;;;1.40;0.20;;;20.30;95.00;20.20;98940.00;;;;343897;28;93657;-93
2021/06/22 00:32:20;;;;;;;1.00;0.20;;;20.30;94.90;20.30;98936.00;;;;341725;28;84250;-87
2021/06/22 00:32:32;;;;;;;1.08;0.30;;;20.30;95.10;20.30;98940.00;;;;341270;28;93199;-93
2021/06/22 00:32:47;;;;;;;0.90;0.30;;;20.30;95.10;20.30;98939.00;;;;342284;28;82360;-93
2021/06/22 00:32:59;;;;;;;0.85;0.22;;;20.30;95.10;20.20;98936.00;;;;339862;28;93794;-93
2021/06/22 00:33:11;;;;;;;1.60;0.30;;;20.30;95.10;20.20;98940.00;;;;344790;28;83840;-91
2021/06/22 00:33:23;;;;;;;2.03;0.35;;;20.30;95.30;20.30;98931.00;;;;344191;28;93774;-92
2021/06/22 00:33:34;;;;;;;2.25;0.20;;;20.30;94.80;20.40;98932.00;;;;343345;28;84481;-93
2021/06/22 00:33:46;;;;;;;1.60;0.20;;;20.30;94.70;20.30;98931.00;;;;344159;28;93046;-93
2021/06/22 00:33:58;;;;;;;1.15;0.20;;;20.30;94.50;20.10;98933.00;;;;344874;28;82339;-96
2021/06/22 00:34:10;;;;;;;1.20;0.30;;;20.30;94.40;20.20;98937.00;;;;344118;28;96129;-95
2021/06/22 00:34:22;;;;;;;1.60;0.20;;;20.30;94.40;20.40;98935.00;;;;346044;28;82364;-94
2021/06/22 00:34:34;;;;;;;1.25;0.20;;;20.30;94.50;20.10;98939.00;;;;345379;28;93351;-95
2021/06/22 00:34:46;;;;;;;1.05;0.20;;;20.40;94.50;20.20;98933.00;;;;341562;28;84240;-87
2021/06/22 00:34:58;;;;;;;1.08;0.25;;;20.40;94.50;20.20;98938.00;;;;339430;28;93043;-92
2021/06/22 00:35:10;;;;;;;1.40;0.30;;;20.30;94.40;20.30;98940.00;;;;343036;28;88271;-93
2021/06/22 00:35:22;;;;;;;1.55;0.25;;;20.30;94.40;20.20;98939.00;;;;343689;28;96285;-94
2021/06/22 00:35:37;;;;;;;1.70;0.35;;;20.30;94.30;20.30;98942.00;;;;341800;28;84428;-96
2021/06/22 00:35:48;;;;;;;1.83;0.40;;;20.40;94.40;20.40;98933.00;;;;344004;28;96886;-92
2021/06/22 00:36:00;;;;;;;1.55;0.40;;;20.40;94.60;20.40;98933.00;;;;343313;28;82453;-92
2021/06/22 00:36:15;;;;;;;1.23;0.20;;;20.40;94.70;20.40;98938.00;;;;342821;28;96580;-93
2021/06/22 00:36:27;;;;;;;2.05;0.20;;;20.40;94.80;20.40;98937.00;;;;343368;28;84415;-94
2021/06/22 00:36:39;;;;;;;2.45;0.20;;;20.40;94.80;20.30;98939.00;;;;340055;28;96079;-90
2021/06/22 00:36:51;;;;;;;2.17;0.20;;;20.40;94.80;20.30;98937.00;;;;345025;28;82502;-89
2021/06/22 00:37:03;;;;;;;1.40;0.20;;;20.40;94.70;20.30;98944.00;;;;341376;28;96756;-93
2021/06/22 00:37:16;;;;;;;1.17;0.20;;;20.40;94.70;20.40;98941.00;;;;340879;28;84356;-92
2021/06/22 00:37:28;;;;;;;1.05;0.20;;;20.40;94.70;20.30;98940.00;;;;342624;28;94662;-93
2021/06/22 00:37:42;;;;;;;0.98;0.20;;;20.40;94.60;20.30;98942.00;;;;342243;28;82307;-92
2021/06/22 00:37:53;;;;;;;2.17;0.20;;;20.40;94.50;20.20;98940.00;;;;339171;28;95765;-92
2021/06/22 00:38:05;;;;;;;2.30;0.30;;;20.40;94.50;20.20;98935.00;;;;344502;28;82626;-95
2021/06/22 00:38:17;;;;;;;1.48;0.30;;;20.30;94.60;20.30;98940.00;;;;342577;28;96668;-96
2021/06/22 00:38:29;;;;;;;1.40;0.30;;;20.30;94.70;20.20;98940.00;;;;340517;28;83278;-95
2021/06/22 00:38:41;;;;;;;1.55;0.28;;;20.30;94.70;20.30;98936.00;;;;342568;28;93471;-92
2021/06/22 00:38:53;;;;;;;1.35;0.30;;;20.30;94.70;20.40;98940.00;;;;343055;28;82481;-96
2021/06/22 00:39:05;;;;;;;1.83;0.40;;;20.30;94.80;20.40;98937.00;;;;343727;28;94834;-95
2021/06/22 00:39:17;;;;;;;1.65;0.45;;;20.30;94.80;20.40;98939.00;;;;341641;28;82798;-96
2021/06/22 00:39:29;;;;;;;1.38;0.43;;;20.30;94.80;20.40;98938.00;;;;341174;28;97069;-96
2021/06/22 00:39:41;;;;;;;0.90;0.40;;;20.30;94.80;20.50;98941.00;;;;340638;28;84218;-91
2021/06/22 00:39:54;;;;;;;0.70;0.30;;;20.30;94.80;20.40;98944.00;;;;342546;28;93798;-95
2021/06/22 00:40:07;;;;;;;0.70;0.20;;;20.30;94.80;20.50;98939.00;;;;341903;28;84942;-96
2021/06/22 00:40:19;;;;;;;1.30;0.30;;;20.40;94.70;20.40;98948.00;;;;342616;28;92883;-96
2021/06/22 00:40:31;;;;;;;1.88;0.30;;;20.40;94.50;20.30;98947.00;;;;341542;28;82347;-96
2021/06/22 00:40:43;;;;;;;1.92;0.28;;;20.40;94.40;20.30;98946.00;;;;339629;28;92148;-94
2021/06/22 00:40:55;;;;;;;1.08;0.20;;;20.40;94.40;20.40;98947.00;;;;341386;28;82445;-96
2021/06/22 00:41:07;;;;;;;0.93;0.30;;;20.40;94.50;20.40;98947.00;;;;344573;28;93595;-94
2021/06/22 00:41:20;;;;;;;1.25;0.40;;;20.40;94.50;20.40;98950.00;;;;341405;28;82483;-91
2021/06/22 00:41:32;;;;;;;1.50;0.40;;;20.40;94.50;20.30;98954.00;;;;340658;28;97304;-95
2021/06/22 00:41:44;;;;;;;1.00;0.30;;;20.40;94.40;20.20;98949.00;;;;341549;28;83811;-94
2021/06/22 00:41:56;;;;;;;3.20;0.25;;;20.40;94.50;20.20;98954.00;;;;342090;28;93641;-95
2021/06/22 00:42:08;;;;;;;4.10;0.30;;;20.40;94.60;20.30;98959.00;;;;339930;28;82454;-96
2021/06/22 00:42:20;;;;;;;2.47;0.32;;;20.40;94.70;20.40;98957.00;;;;338038;28;93061;-96
2021/06/22 00:42:32;;;;;;;2.45;0.30;;;20.40;94.60;20.40;98958.00;;;;341311;28;82433;-89
2021/06/22 00:42:45;;;;;;;2.10;0.40;;;20.40;94.80;20.40;98950.00;;;;341117;28;92819;-95
2021/06/22 00:42:57;;;;;;;2.00;0.30;;;20.40;94.80;20.50;98957.00;;;;343915;28;82332;-96
2021/06/22 00:43:09;;;;;;;1.73;0.20;;;20.40;94.70;20.40;98959.00;;;;339302;28;93072;-96
2021/06/22 00:43:21;;;;;;;1.85;0.30;;;20.40;94.80;20.10;98958.00;;;;344020;28;83962;-96
2021/06/22 00:43:38;;;;;;;1.85;0.32;;;20.40;94.90;19.80;98953.00;;;;343404;28;94223;-96
2021/06/22 00:43:50;;;;;;;2.25;0.38;;;20.40;94.70;19.80;98964.00;;;;342233;28;82433;-92
2021/06/22 00:44:06;;;;;;;1.75;0.47;;;20.30;94.70;19.90;98965.00;;;;344373;28;96384;-96
2021/06/22 00:44:18;;;;;;;3.40;0.82;;;20.30;94.90;20.10;98961.00;;;;343026;28;82857;-95
2021/06/22 00:44:30;;;;;;;3.20;0.73;;;20.30;95.00;19.80;98958.00;;;;342042;28;95698;-95
2021/06/22 00:44:58;;;;;;;1.85;0.40;;;20.30;94.70;19.60;98968.00;;;;341551;28;83967;-95
2021/06/22 00:45:11;;;;;;;2.63;0.47;;;20.20;94.50;19.60;98967.00;;;;339267;28;95067;-96
2021/06/22 00:45:31;;;;;;;2.10;0.50;;;20.20;95.30;19.70;98963.00;;;;340260;28;83697;-93
2021/06/22 00:45:44;;;;;;;1.10;0.30;;;20.20;95.50;19.70;98958.00;;;;338346;28;93109;-90
2021/06/22 00:45:56;;;;;;;1.15;0.28;;;20.20;95.50;19.80;98969.00;;;;343022;28;82431;-96
2021/06/22 00:46:08;;;;;;;1.48;0.30;;;20.20;95.50;19.90;98968.00;;;;338297;28;97702;-93
2021/06/22 00:46:20;;;;;;;2.13;0.30;;;20.20;95.50;20.00;98955.00;;;;344587;28;84028;-95
2021/06/22 00:46:33;;;;;;;2.53;0.20;;;20.10;95.40;20.00;98964.00;;;;341101;28;93897;-95
2021/06/22 00:46:45;;;;;;;3.78;0.45;;;20.10;95.40;20.10;98968.00;;;;339091;28;84643;-93
2021/06/22 00:46:57;;;;;;;3.40;0.50;;;20.20;95.40;20.10;98971.00;;;;340891;28;93417;-96
2021/06/22 00:47:08;;;;;;;2.05;0.55;;;20.20;95.60;20.10;98964.00;;;;340745;28;84240;-95
2021/06/22 00:47:24;;;;;;;1.65;0.40;;;20.10;95.50;20.00;98972.00;;;;344001;28;95792;-95
2021/06/22 00:47:36;;;;;;;1.50;0.30;;;20.10;95.50;20.10;98972.00;;;;341989;28;82767;-94
2021/06/22 00:47:48;;;;;;;0.80;0.25;;;20.20;95.60;20.00;98975.00;;;;341231;28;96145;-90
2021/06/22 00:48:01;;;;;;;0.93;0.20;;;20.20;95.60;20.00;98969.00;;;;343319;28;83479;-91
2021/06/22 00:48:12;;;;;;;1.10;0.20;;;20.20;96.00;20.00;98973.00;;;;343967;28;94413;-94
2021/06/22 00:48:24;;;;;;;1.20;0.20;;;20.20;95.70;20.10;98973.00;;;;342173;28;82458;-94
2021/06/22 00:48:37;;;;;;;1.40;0.20;;;20.20;95.60;20.30;98982.00;;;;340056;28;95964;-94
2021/06/22 00:48:49;;;;;;;1.65;0.20;;;20.20;95.60;20.30;98976.00;;;;343548;28;82178;-89
2021/06/22 00:49:01;;;;;;;1.67;0.25;;;20.20;95.50;20.30;98974.00;;;;342587;28;93305;-93
2021/06/22 00:49:14;;;;;;;1.30;0.30;;;20.20;95.50;20.20;98982.00;;;;342001;28;82334;-93
2021/06/22 00:49:25;;;;;;;0.98;0.30;;;20.20;95.50;20.10;98975.00;;;;338476;28;97032;-95
2021/06/22 00:49:37;;;;;;;1.20;0.30;;;20.20;95.50;20.10;98974.00;;;;341809;28;83352;-96
2021/06/22 00:49:50;;;;;;;1.92;0.40;;;20.20;95.60;20.10;98975.00;;;;339795;28;93461;-90
2021/06/22 00:50:02;;;;;;;2.85;0.32;;;20.20;95.70;20.20;98978.00;;;;340748;28;83445;-91
2021/06/22 00:50:14;;;;;;;2.75;0.30;;;20.20;95.70;20.20;98977.00;;;;339680;28;97191;-93
2021/06/22 00:50:27;;;;;;;0.60;0.20;;;20.20;95.60;20.10;98973.00;;;;340784;28;82366;-92
2021/06/22 00:50:39;;;;;;;0.88;0.20;;;20.20;95.70;20.20;98973.00;;;;341466;28;93399;-95
2021/06/22 00:50:50;;;;;;;2.53;0.25;;;20.20;95.60;20.30;98972.00;;;;343387;28;82340;-90
2021/06/22 00:51:04;;;;;;;2.83;0.30;;;20.20;95.70;20.30;98980.00;;;;342638;28;92969;-94
2021/06/22 00:51:16;;;;;;;2.90;0.30;;;20.20;95.60;20.30;98971.00;;;;343572;28;82342;-95
2021/06/22 00:51:28;;;;;;;1.65;0.35;;;20.20;95.60;20.10;98975.00;;;;339755;28;96617;-94
2021/06/22 00:51:40;;;;;;;0.77;0.30;;;20.30;95.60;20.10;98977.00;;;;343263;28;82358;-95
2021/06/22 00:51:51;;;;;;;0.98;0.25;;;20.30;95.60;20.10;98972.00;;;;337277;28;93103;-93
2021/06/22 00:52:03;;;;;;;1.77;0.32;;;20.30;95.60;20.20;98978.00;;;;344625;28;82826;-94
2021/06/22 00:52:23;;;;;;;2.15;0.40;;;20.30;95.60;20.30;98979.00;;;;342811;28;93954;-93
2021/06/22 00:52:36;;;;;;;1.45;0.20;;;20.30;95.60;20.40;98975.00;;;;339049;28;82361;-96
2021/06/22 00:52:47;;;;;;;0.85;0.20;;;20.30;95.60;20.10;98972.00;;;;341235;28;93735;-95
2021/06/22 00:53:00;;;;;;;0.98;0.20;;;20.30;95.60;20.10;98977.00;;;;344326;28;82669;-94
2021/06/22 00:53:12;;;;;;;1.35;0.30;;;20.30;95.50;20.20;98970.00;;;;342503;28;92397;-96
2021/06/22 00:53:24;;;;;;;1.83;0.30;;;20.30;95.50;20.40;98985.00;;;;344127;28;82639;-93
2021/06/22 00:53:36;;;;;;;1.23;0.20;;;20.30;95.50;20.40;98983.00;;;;341638;28;93448;-90
2021/06/22 00:53:48;;;;;;;0.95;0.25;;;20.30;95.50;20.10;98974.00;;;;343416;28;82411;-94
2021/06/22 00:54:00;;;;;;;3.15;0.40;;;20.30;95.30;20.10;98976.00;;;;344404;28;92813;-91
2021/06/22 00:54:12;;;;;;;3.15;0.40;;;20.30;95.30;20.10;98975.00;;;;341784;28;83728;-88
2021/06/22 00:54:24;;;;;;;2.22;0.20;;;20.30;95.40;20.30;98978.00;;;;342955;28;94127;-84
2021/06/22 00:54:36;;;;;;;1.63;0.20;;;20.30;95.40;20.20;98974.00;;;;342266;28;84301;-87
2021/06/22 00:54:50;;;;;;;1.70;0.25;;;20.30;95.20;20.20;98979.00;;;;342959;28;95203;-88
2021/06/22 00:55:11;;;;;;;1.45;0.30;;;20.30;95.10;20.10;98983.00;;;;341110;28;82603;-88
2021/06/22 00:55:29;;;;;;;1.60;0.20;;;20.30;95.10;20.30;98986.00;;;;338737;28;96592;-91
2021/06/22 00:56:02;;;;;;;1.40;0.40;;;20.30;95.20;20.20;98982.00;;;;340679;28;83711;-91
2021/06/22 00:56:17;;;;;;;1.20;0.20;;;20.30;95.00;20.40;98978.00;;;;340077;28;95834;-92
2021/06/22 00:56:30;;;;;;;1.30;0.22;;;20.30;95.00;20.40;98984.00;;;;343396;28;82856;-89
2021/06/22 00:56:43;;;;;;;2.05;0.30;;;20.40;94.90;20.50;98980.00;;;;338952;28;95104;-87
2021/06/22 00:57:09;;;;;;;2.50;0.30;;;20.40;94.90;20.40;98983.00;;;;340507;28;83102;-90